Time;durP1;ratioP1;P1;durP2;ratioP2;P2;SDS_P1;SDS_P2;PMS_P1;PMS_P2;Temp;Humidity;BMP_temperature;BMP_pressure;BME280_temperature;BME280_humidity;BME280_pressure;Samples;Min_cycle;Max_cycle;Signal;HPM_P1;HPM_P2
2022/04/30 00:00:09;;;;;;;7.80;6.80;;;;;;;12.45;71.49;98547.47;4974257;28;20242;-72
2022/04/30 00:02:36;;;;;;;8.03;7.13;;;;;;;12.37;71.90;98538.91;4975222;28;20269;-72
2022/04/30 00:05:02;;;;;;;7.93;7.13;;;;;;;12.41;72.68;98542.78;4977707;28;20211;-72
2022/04/30 00:07:29;;;;;;;10.30;6.70;;;;;;;12.50;70.81;98539.63;4977741;28;20589;-72
2022/04/30 00:09:55;;;;;;;7.80;6.93;;;;;;;12.51;72.01;98532.41;4977666;28;20215;-72
2022/04/30 00:12:23;;;;;;;8.77;5.90;;;;;;;12.62;71.69;98537.84;4977362;28;20211;-72
2022/04/30 00:14:50;;;;;;;8.67;5.93;;;;;;;12.61;71.76;98538.88;4977252;28;20653;-72
2022/04/30 00:17:16;;;;;;;8.43;6.33;;;;;;;12.42;73.42;98541.72;4976543;28;20597;-72
2022/04/30 00:19:43;;;;;;;7.10;6.00;;;;;;;12.36;73.73;98542.63;4977294;28;20323;-73
2022/04/30 00:22:10;;;;;;;6.90;6.20;;;;;;;12.30;73.92;98543.50;4975826;28;20210;-72
2022/04/30 00:24:38;;;;;;;7.60;5.90;;;;;;;12.37;71.93;98552.25;4975758;28;20203;-72
2022/04/30 00:27:05;;;;;;;6.53;5.77;;;;;;;12.29;72.10;98558.66;4977365;28;20237;-72
2022/04/30 00:29:32;;;;;;;7.20;6.47;;;;;;;12.35;71.68;98557.78;4977086;28;20210;-72
2022/04/30 00:32:02;;;;;;;7.73;7.03;;;;;;;12.38;71.35;98553.91;4977374;28;20210;-72
2022/04/30 00:34:29;;;;;;;8.00;7.27;;;;;;;12.38;70.75;98549.34;4976839;28;20231;-72
2022/04/30 00:36:56;;;;;;;7.93;7.13;;;;;;;12.37;71.01;98554.91;4976862;28;20215;-72
2022/04/30 00:39:22;;;;;;;9.27;7.70;;;;;;;12.35;71.07;98555.13;4976345;28;20213;-72
2022/04/30 00:41:48;;;;;;;8.97;7.97;;;;;;;12.35;70.75;98555.13;4976120;28;20211;-72
2022/04/30 00:44:19;;;;;;;8.77;7.77;;;;;;;12.31;71.68;98545.94;4977104;28;20314;-72
2022/04/30 00:46:46;;;;;;;8.80;7.90;;;;;;;12.27;72.75;98565.25;4976843;28;20219;-72
2022/04/30 00:49:13;;;;;;;8.30;7.50;;;;;;;12.27;70.77;98550.09;4976723;28;20665;-72
2022/04/30 00:51:40;;;;;;;7.43;6.73;;;;;;;12.26;69.99;98552.94;4976934;28;20212;-72
2022/04/30 00:54:08;;;;;;;9.10;7.17;;;;;;;12.24;70.28;98550.50;4975663;28;20233;-72
2022/04/30 00:56:45;;;;;;;7.07;6.43;;;;;;;12.26;70.73;98551.09;4976741;28;20212;-72
2022/04/30 00:59:17;;;;;;;8.00;7.30;;;;;;;12.27;70.47;98551.91;4976571;28;20655;-72
2022/04/30 01:01:45;;;;;;;8.20;7.40;;;;;;;12.18;71.13;98548.72;4976534;28;20653;-71
2022/04/30 01:04:12;;;;;;;7.83;7.03;;;;;;;12.23;70.93;98548.88;4976440;28;20671;-72
2022/04/30 01:06:57;;;;;;;7.87;7.03;;;;;;;12.22;71.22;98552.59;4977115;28;20231;-72
2022/04/30 01:09:25;;;;;;;8.80;7.87;;;;;;;12.21;72.01;98550.94;4976396;28;20596;-72
2022/04/30 01:12:00;;;;;;;9.00;8.03;;;;;;;12.22;71.73;98552.59;4974883;28;20232;-72
2022/04/30 01:14:31;;;;;;;9.30;8.27;;;;;;;12.25;71.89;98554.00;4976775;28;20229;-72
2022/04/30 01:16:59;;;;;;;12.60;8.53;;;;;;;12.32;71.88;98554.75;4976501;28;20236;-72
2022/04/30 01:19:27;;;;;;;14.13;8.93;;;;;;;12.29;72.34;98553.31;4976463;28;20204;-72
2022/04/30 01:21:59;;;;;;;15.10;9.80;;;;;;;12.24;73.59;98553.16;4977245;28;20271;-72
2022/04/30 01:24:28;;;;;;;13.47;10.63;;;;;;;12.19;74.76;98553.00;4976422;28;20185;-72
2022/04/30 01:26:56;;;;;;;12.30;10.73;;;;;;;12.17;74.89;98544.38;4975942;28;20602;-72
2022/04/30 01:29:24;;;;;;;14.23;11.10;;;;;;;12.15;75.57;98549.13;4974619;28;20267;-72
2022/04/30 01:37:25;;;;;;;16.13;13.70;;;;;;;12.02;78.37;98546.56;4974872;28;20222;-72
2022/04/30 01:40:09;;;;;;;15.80;13.80;;;;;;;11.98;79.31;98550.69;4976095;28;20296;-72
2022/04/30 01:42:44;;;;;;;18.37;14.87;;;;;;;11.90;79.90;98545.66;4976110;28;20218;-72
2022/04/30 01:45:11;;;;;;;18.13;14.73;;;;;;;11.93;80.52;98537.19;4975064;28;20199;-72
2022/04/30 01:47:40;;;;;;;22.90;14.53;;;;;;;11.98;80.84;98533.91;4975912;28;20244;-72
2022/04/30 01:50:08;;;;;;;20.73;14.60;;;;;;;11.87;81.36;98534.56;4975914;28;20215;-71
2022/04/30 01:52:34;;;;;;;22.73;15.97;;;;;;;11.85;81.55;98524.13;4975858;28;20222;-72
2022/04/30 01:55:01;;;;;;;18.93;15.80;;;;;;;11.84;82.37;98527.03;4975777;28;20302;-72
2022/04/30 01:57:28;;;;;;;21.53;16.03;;;;;;;11.84;82.98;98517.19;4975673;28;20228;-72
2022/04/30 01:59:55;;;;;;;19.87;15.60;;;;;;;11.82;82.54;98508.59;4974426;28;20212;-71
2022/04/30 02:02:24;;;;;;;19.70;16.00;;;;;;;11.84;82.84;98511.06;4975694;28;20215;-72
2022/04/30 02:04:53;;;;;;;25.27;16.83;;;;;;;11.85;83.02;98520.66;4975649;28;20212;-72
2022/04/30 02:07:21;;;;;;;19.90;16.27;;;;;;;11.79;83.61;98518.84;4975893;28;20234;-71
2022/04/30 02:09:52;;;;;;;19.80;16.20;;;;;;;11.81;83.66;98514.97;4975529;28;20212;-72
2022/04/30 02:12:19;;;;;;;19.37;16.10;;;;;;;11.80;85.11;98513.31;4975225;28;20670;-72
2022/04/30 02:14:58;;;;;;;20.17;16.53;;;;;;;11.86;84.16;98503.66;4974831;28;20227;-71
2022/04/30 02:17:26;;;;;;;22.10;16.93;;;;;;;11.77;85.52;98508.44;4975373;28;20243;-73
2022/04/30 02:22:41;;;;;;;21.23;17.23;;;;;;;11.79;85.40;98511.69;4975442;28;20183;-72
2022/04/30 02:25:09;;;;;;;21.20;16.20;;;;;;;11.73;85.74;98512.56;4974673;28;20210;-72
2022/04/30 02:27:38;;;;;;;21.57;17.00;;;;;;;11.73;85.12;98509.88;4975184;28;20239;-72
2022/04/30 02:30:11;;;;;;;23.70;17.33;;;;;;;11.75;85.04;98501.69;4973193;28;20677;-72
2022/04/30 02:32:52;;;;;;;21.80;17.70;;;;;;;11.72;85.28;98505.59;4975183;28;20214;-72
2022/04/30 02:35:26;;;;;;;21.40;16.47;;;;;;;11.74;85.13;98508.84;4974031;28;20242;-72
2022/04/30 02:37:56;;;;;;;19.97;16.23;;;;;;;11.68;85.42;98515.06;4974752;28;20738;-72
2022/04/30 02:40:25;;;;;;;18.30;15.57;;;;;;;11.61;85.75;98511.59;4975134;28;20200;-72
2022/04/30 02:42:52;;;;;;;18.10;15.37;;;;;;;11.66;85.20;98519.75;4974965;28;20263;-72
2022/04/30 02:45:20;;;;;;;19.03;15.30;;;;;;;11.58;85.32;98514.66;4973764;28;20208;-72
2022/04/30 02:47:52;;;;;;;18.90;15.10;;;;;;;11.62;84.97;98507.91;4974999;28;20239;-72
2022/04/30 02:50:19;;;;;;;15.93;14.33;;;;;;;11.57;85.62;98515.69;4974732;28;20290;-72
2022/04/30 02:52:46;;;;;;;18.13;14.87;;;;;;;11.56;85.30;98508.72;4974906;28;20208;-71
2022/04/30 02:55:14;;;;;;;17.43;15.60;;;;;;;11.58;86.14;98509.31;4974540;28;20702;-71
2022/04/30 02:59:53;;;;;;;20.43;15.17;;;;;;;11.55;85.85;98508.94;4974517;28;20263;-72
2022/04/30 03:00:32;;;;;;;17.67;15.20;;;;;;;11.54;86.53;98505.47;4972984;28;20683;-72
2022/04/30 03:02:58;;;;;;;20.20;15.03;;;;;;;11.44;86.98;98502.44;4974868;28;20212;-72
2022/04/30 03:05:25;;;;;;;20.60;15.67;;;;;;;11.40;87.31;98501.22;4974649;28;20215;-72
2022/04/30 03:07:52;;;;;;;22.63;15.20;;;;;;;11.45;87.27;98501.44;4973611;28;20314;-72
2022/04/30 03:10:19;;;;;;;21.57;16.33;;;;;;;11.44;87.48;98505.09;4975118;28;20207;-72
2022/04/30 03:12:46;;;;;;;19.50;16.83;;;;;;;11.38;88.12;98505.97;4974631;28;20219;-72
2022/04/30 03:15:12;;;;;;;20.27;16.60;;;;;;;11.43;88.65;98502.69;4974600;28;20224;-72
2022/04/30 03:23:07;;;;;;;22.63;17.93;;;;;;;11.29;90.28;98501.91;4974469;28;20296;-72
2022/04/30 03:25:33;;;;;;;25.80;17.50;;;;;;;11.37;89.89;98504.34;4974267;28;20326;-72
2022/04/30 03:28:00;;;;;;;21.67;17.90;;;;;;;11.35;90.72;98503.72;4974212;28;20227;-71
2022/04/30 03:30:26;;;;;;;25.27;19.73;;;;;;;11.23;91.28;98507.25;4974574;28;20218;-71
2022/04/30 03:32:52;;;;;;;23.33;19.37;;;;;;;11.22;92.26;98510.97;4974501;28;20208;-71
2022/04/30 03:35:19;;;;;;;26.80;18.63;;;;;;;11.25;92.10;98505.22;4973702;28;20239;-72
2022/04/30 03:37:45;;;;;;;27.63;20.13;;;;;;;11.14;92.97;98512.81;4978133;28;20238;-71
2022/04/30 03:40:13;;;;;;;27.50;21.20;;;;;;;11.18;92.80;98513.25;4978223;28;20210;-72
2022/04/30 03:42:40;;;;;;;27.90;21.23;;;;;;;11.21;93.36;98512.78;4976893;28;20586;-71
2022/04/30 03:45:07;;;;;;;27.27;21.00;;;;;;;11.17;93.53;98511.59;4976337;28;20222;-72
2022/04/30 03:47:33;;;;;;;24.80;21.20;;;;;;;11.11;94.03;98515.09;4977655;28;20243;-72
2022/04/30 03:50:00;;;;;;;25.37;21.43;;;;;;;11.08;94.78;98526.97;4978042;28;20208;-72
2022/04/30 03:52:26;;;;;;;26.20;21.83;;;;;;;11.12;95.12;98523.91;4978080;28;20212;-72
2022/04/30 03:54:52;;;;;;;30.60;22.13;;;;;;;11.08;95.32;98520.84;4977936;28;20251;-71
2022/04/30 03:57:19;;;;;;;27.47;22.20;;;;;;;11.20;94.37;98524.47;4977899;28;20227;-71
2022/04/30 03:59:46;;;;;;;28.97;22.57;;;;;;;11.13;95.18;98522.88;4976767;28;20211;-72
2022/04/30 04:02:13;;;;;;;29.27;22.43;;;;;;;11.01;95.90;98520.06;4978000;28;20212;-72
2022/04/30 04:04:39;;;;;;;31.93;23.33;;;;;;;11.03;96.39;98525.97;4977552;28;20210;-72
2022/04/30 04:07:06;;;;;;;29.73;23.97;;;;;;;10.97;96.20;98524.16;4977283;28;20711;-72
2022/04/30 04:09:33;;;;;;;30.23;24.37;;;;;;;10.98;96.21;98521.28;4976596;28;20208;-72
2022/04/30 04:11:59;;;;;;;31.27;24.63;;;;;;;11.00;96.12;98524.53;4977652;28;20207;-72
2022/04/30 04:19:53;;;;;;;33.33;24.43;;;;;;;10.86;98.52;98548.75;4977341;28;20254;-72
2022/04/30 04:22:19;;;;;;;31.50;25.27;;;;;;;10.85;97.63;98547.09;4977527;28;20208;-72
2022/04/30 04:27:30;;;;;;;27.53;24.30;;;;;;;10.81;99.15;98546.72;4977225;28;20698;-71
2022/04/30 04:29:56;;;;;;;29.03;24.83;;;;;;;10.74;99.09;98542.44;4977058;28;20213;-71
2022/04/30 04:32:24;;;;;;;31.00;25.07;;;;;;;10.80;99.94;98537.09;4976860;28;20239;-71
2022/04/30 04:34:50;;;;;;;31.07;24.73;;;;;;;10.73;100.00;98543.47;4977118;28;20228;-72
2022/04/30 04:37:17;;;;;;;31.47;24.73;;;;;;;10.73;100.00;98544.25;4977058;28;20228;-72
2022/04/30 04:39:43;;;;;;;36.50;26.33;;;;;;;10.71;100.00;98545.50;4977119;28;20218;-72
2022/04/30 04:42:09;;;;;;;30.23;25.37;;;;;;;10.69;100.00;98542.25;4977481;28;20214;-72
2022/04/30 04:44:36;;;;;;;30.90;25.27;;;;;;;10.72;100.00;98539.97;4977056;28;20208;-71
2022/04/30 04:47:03;;;;;;;37.83;25.93;;;;;;;10.63;100.00;98551.03;4976005;28;20243;-71
2022/04/30 04:49:30;;;;;;;33.70;26.40;;;;;;;10.60;100.00;98557.56;4975139;28;20698;-72
2022/04/30 04:51:57;;;;;;;33.10;25.27;;;;;;;10.68;100.00;98560.03;4976418;28;20216;-72
2022/04/30 04:54:23;;;;;;;32.67;24.67;;;;;;;10.77;100.00;98561.44;4976834;28;20231;-72
2022/04/30 04:56:50;;;;;;;29.57;24.87;;;;;;;10.78;100.00;98570.25;4976827;28;20218;-71
2022/04/30 04:59:16;;;;;;;35.60;26.17;;;;;;;10.70;100.00;98571.28;4976895;28;20223;-71
2022/04/30 05:01:42;;;;;;;31.43;23.30;;;;;;;10.73;100.00;98572.72;4976809;28;20204;-71
2022/04/30 05:04:10;;;;;;;33.23;25.30;;;;;;;10.74;100.00;98571.69;4976731;28;20216;-71
2022/04/30 05:06:36;;;;;;;31.53;25.50;;;;;;;10.79;100.00;98569.22;4975149;28;20215;-72
2022/04/30 05:09:03;;;;;;;30.43;24.93;;;;;;;10.74;100.00;98567.19;4977409;28;20211;-71
2022/04/30 05:11:29;;;;;;;30.33;26.13;;;;;;;10.66;100.00;98569.25;4976322;28;20212;-71
2022/04/30 05:13:56;;;;;;;29.77;24.53;;;;;;;10.71;100.00;98578.25;4976475;28;20219;-71
2022/04/30 05:16:22;;;;;;;30.33;24.73;;;;;;;10.64;100.00;98585.38;4975996;28;20606;-71
2022/04/30 05:18:48;;;;;;;32.57;25.37;;;;;;;10.57;100.00;98581.09;4976306;28;20231;-71
2022/04/30 05:21:15;;;;;;;33.43;25.23;;;;;;;10.50;100.00;98589.09;4975991;28;20706;-71
2022/04/30 05:23:41;;;;;;;32.60;26.30;;;;;;;10.60;100.00;98594.81;4974394;28;20667;-71
2022/04/30 05:26:07;;;;;;;30.50;25.10;;;;;;;10.63;100.00;98594.41;4976352;28;20296;-72
2022/04/30 05:28:34;;;;;;;31.90;26.20;;;;;;;10.50;100.00;98590.94;4976268;28;20224;-72
2022/04/30 05:31:00;;;;;;;33.10;26.70;;;;;;;10.59;100.00;98593.16;4975321;28;20294;-72
2022/04/30 05:33:28;;;;;;;37.20;27.73;;;;;;;10.60;100.00;98607.31;4976084;28;20213;-71
2022/04/30 05:35:57;;;;;;;35.13;28.10;;;;;;;10.61;100.00;98608.94;4976003;28;20270;-71
2022/04/30 05:38:24;;;;;;;33.67;26.50;;;;;;;10.55;100.00;98609.75;4975837;28;20228;-72
2022/04/30 05:40:50;;;;;;;36.33;27.87;;;;;;;10.42;100.00;98609.75;4975063;28;20207;-71
2022/04/30 05:43:16;;;;;;;34.50;26.63;;;;;;;10.44;100.00;98613.84;4975930;28;20208;-71
2022/04/30 05:45:43;;;;;;;32.57;25.97;;;;;;;10.53;100.00;98611.78;4974665;28;20569;-72
2022/04/30 05:48:09;;;;;;;34.83;27.83;;;;;;;10.42;100.00;98612.41;4975553;28;20607;-71
2022/04/30 05:50:36;;;;;;;35.07;27.03;;;;;;;10.49;100.00;98613.22;4975858;28;20215;-71
2022/04/30 05:53:02;;;;;;;35.00;28.73;;;;;;;10.50;100.00;98613.00;4975807;28;20222;-71
2022/04/30 05:55:29;;;;;;;38.17;27.53;;;;;;;10.53;100.00;98612.63;4975645;28;20232;-71
2022/04/30 05:57:55;;;;;;;34.73;27.77;;;;;;;10.47;100.00;98609.97;4975553;28;20232;-72
2022/04/30 06:00:22;;;;;;;33.60;26.93;;;;;;;10.59;100.00;98611.00;4973719;28;20675;-71
2022/04/30 06:02:48;;;;;;;31.53;26.53;;;;;;;10.63;100.00;98604.22;4975248;28;20667;-71
2022/04/30 06:05:15;;;;;;;34.33;27.57;;;;;;;10.49;100.00;98611.38;4975243;28;20745;-71
2022/04/30 06:07:41;;;;;;;31.63;26.70;;;;;;;10.49;100.00;98611.38;4975544;28;20227;-71
2022/04/30 06:10:08;;;;;;;35.20;26.57;;;;;;;10.60;100.00;98610.75;4975487;28;20215;-71
2022/04/30 06:12:35;;;;;;;31.97;26.73;;;;;;;10.58;100.00;98615.47;4975173;28;20675;-71
2022/04/30 06:15:03;;;;;;;34.97;27.63;;;;;;;10.62;100.00;98613.22;4973669;28;20282;-72
2022/04/30 06:17:30;;;;;;;34.33;28.40;;;;;;;10.57;100.00;98616.50;4973290;28;20239;-71
2022/04/30 06:19:56;;;;;;;29.43;26.07;;;;;;;10.63;100.00;98615.66;4975079;28;20219;-71
2022/04/30 06:22:22;;;;;;;29.10;25.33;;;;;;;10.59;100.00;98608.31;4975251;28;20219;-71
2022/04/30 06:24:49;;;;;;;30.77;26.23;;;;;;;10.52;100.00;98616.31;4975260;28;20204;-71
2022/04/30 06:27:15;;;;;;;34.33;27.73;;;;;;;10.57;100.00;98613.00;4974818;28;20240;-71
2022/04/30 06:29:41;;;;;;;33.03;26.93;;;;;;;10.65;100.00;98613.66;4975213;28;20253;-71
2022/04/30 06:32:08;;;;;;;30.30;25.03;;;;;;;10.64;100.00;98616.50;4973461;28;20204;-71
2022/04/30 06:34:35;;;;;;;29.60;26.17;;;;;;;10.64;100.00;98621.81;4974764;28;20667;-71
2022/04/30 06:37:01;;;;;;;31.53;26.43;;;;;;;10.76;100.00;98620.16;4974668;28;20227;-71
2022/04/30 06:39:28;;;;;;;30.60;26.40;;;;;;;10.75;100.00;98629.16;4974747;28;20218;-71
2022/04/30 06:41:54;;;;;;;33.80;26.93;;;;;;;10.86;100.00;98629.34;4973781;28;20234;-71
2022/04/30 06:44:20;;;;;;;31.33;25.17;;;;;;;10.88;100.00;98626.50;4974931;28;20212;-71
2022/04/30 06:46:47;;;;;;;30.23;24.60;;;;;;;10.98;100.00;98628.75;4974792;28;20536;-71
2022/04/30 06:49:13;;;;;;;26.43;23.57;;;;;;;10.86;100.00;98628.56;4972952;28;20754;-71
2022/04/30 06:51:39;;;;;;;27.63;24.40;;;;;;;11.07;100.00;98624.84;4974966;28;20294;-71
2022/04/30 06:57:11;;;;;;;26.47;23.20;;;;;;;10.96;100.00;98626.28;4940336;28;20729;-71
2022/04/30 06:59:41;;;;;;;30.60;23.87;;;;;;;11.03;100.00;98619.91;4975413;28;20192;-71
2022/04/30 07:02:18;;;;;;;25.27;22.43;;;;;;;10.97;100.00;98630.56;4974875;28;20191;-71
2022/04/30 07:04:47;;;;;;;26.67;22.87;;;;;;;10.95;100.00;98635.28;4974834;28;20195;-71
2022/04/30 07:07:15;;;;;;;27.03;23.80;;;;;;;10.95;100.00;98640.63;4972807;28;20228;-71
2022/04/30 07:09:41;;;;;;;28.83;23.67;;;;;;;10.98;100.00;98640.19;4973435;28;20619;-71
2022/04/30 07:12:10;;;;;;;27.80;24.33;;;;;;;11.12;100.00;98635.66;4978023;28;20212;-71
2022/04/30 07:14:40;;;;;;;28.07;23.47;;;;;;;11.05;100.00;98644.47;4978297;28;20216;-71
2022/04/30 07:17:11;;;;;;;27.70;23.10;;;;;;;11.03;100.00;98651.03;4978186;28;20755;-71
2022/04/30 07:19:37;;;;;;;26.17;23.17;;;;;;;11.04;100.00;98634.06;4978347;28;20188;-71
2022/04/30 07:22:05;;;;;;;26.63;23.27;;;;;;;11.04;100.00;98640.19;4978448;28;20212;-71
2022/04/30 07:24:32;;;;;;;22.87;20.47;;;;;;;10.85;100.00;98643.69;4976519;28;20303;-71
2022/04/30 07:26:58;;;;;;;24.67;21.37;;;;;;;10.93;100.00;98644.50;4978289;28;20278;-71
2022/04/30 07:29:24;;;;;;;26.83;21.37;;;;;;;10.92;100.00;98641.03;4978332;28;20204;-71
2022/04/30 07:31:51;;;;;;;25.53;22.00;;;;;;;10.94;100.00;98644.28;4978101;28;20307;-71
2022/04/30 07:34:17;;;;;;;29.40;24.67;;;;;;;11.01;100.00;98643.25;4978025;28;20690;-71
2022/04/30 07:36:44;;;;;;;25.57;21.30;;;;;;;10.91;100.00;98647.38;4978088;28;20235;-71
2022/04/30 07:39:10;;;;;;;24.03;20.80;;;;;;;11.16;100.00;98645.69;4977077;28;20271;-71
2022/04/30 07:41:37;;;;;;;23.73;21.23;;;;;;;11.19;100.00;98648.72;4978185;28;20218;-71
2022/04/30 07:44:03;;;;;;;22.53;20.10;;;;;;;10.99;100.00;98652.47;4977794;28;20204;-71
2022/04/30 07:46:30;;;;;;;21.90;19.63;;;;;;;10.98;100.00;98653.47;4978120;28;20211;-71
2022/04/30 07:48:57;;;;;;;21.97;19.17;;;;;;;10.97;100.00;98651.84;4977621;28;20711;-71
2022/04/30 07:51:34;;;;;;;21.70;19.50;;;;;;;10.98;100.00;98654.31;4977685;28;20219;-71
2022/04/30 07:54:04;;;;;;;22.67;20.23;;;;;;;11.00;100.00;98657.56;4976568;28;20383;-71
2022/04/30 07:56:30;;;;;;;23.33;19.90;;;;;;;10.97;100.00;98654.50;4977310;28;20231;-71
2022/04/30 07:58:57;;;;;;;22.43;20.13;;;;;;;10.97;100.00;98657.19;4977439;28;20228;-71
2022/04/30 08:01:23;;;;;;;24.27;20.33;;;;;;;11.05;100.00;98655.09;4977906;28;20204;-71
2022/04/30 08:03:49;;;;;;;24.57;21.50;;;;;;;11.05;100.00;98654.31;4977539;28;20204;-71
2022/04/30 08:06:16;;;;;;;21.30;19.10;;;;;;;10.94;100.00;98649.59;4977814;28;20204;-71
2022/04/30 08:08:43;;;;;;;22.73;20.43;;;;;;;10.94;100.00;98657.59;4977704;28;20228;-71
2022/04/30 08:11:09;;;;;;;22.33;19.90;;;;;;;11.01;100.00;98661.06;4976318;28;20208;-71
2022/04/30 08:13:35;;;;;;;22.37;20.10;;;;;;;10.98;100.00;98663.31;4977262;28;20219;-71
2022/04/30 08:16:02;;;;;;;20.80;18.60;;;;;;;10.85;100.00;98659.66;4977027;28;20699;-71
2022/04/30 08:18:28;;;;;;;24.90;20.47;;;;;;;10.72;100.00;98662.31;4977537;28;20228;-71
2022/04/30 08:20:55;;;;;;;23.10;20.70;;;;;;;10.78;100.00;98660.69;4977147;28;20212;-71
2022/04/30 08:23:23;;;;;;;23.53;21.03;;;;;;;10.88;100.00;98661.06;4976069;28;20575;-71
2022/04/30 08:25:49;;;;;;;22.63;19.93;;;;;;;10.98;100.00;98661.47;4977123;28;20690;-71
2022/04/30 08:28:15;;;;;;;24.57;21.97;;;;;;;10.90;100.00;98659.00;4975529;28;20228;-71
2022/04/30 08:30:42;;;;;;;24.00;20.90;;;;;;;10.82;100.00;98660.03;4977238;28;20204;-71
2022/04/30 08:33:08;;;;;;;23.07;20.50;;;;;;;10.87;100.00;98662.09;4977209;28;20259;-71
2022/04/30 08:35:35;;;;;;;19.43;17.53;;;;;;;10.93;100.00;98665.78;4977665;28;20228;-71
2022/04/30 08:38:01;;;;;;;23.00;20.67;;;;;;;10.90;100.00;98662.50;4977063;28;20232;-71
2022/04/30 08:40:27;;;;;;;26.70;21.57;;;;;;;10.96;100.00;98663.53;4977940;28;20211;-71
2022/04/30 08:42:54;;;;;;;21.10;18.97;;;;;;;10.96;100.00;98672.31;4977110;28;20208;-71
2022/04/30 08:45:23;;;;;;;20.33;18.23;;;;;;;10.80;100.00;98670.09;4976117;28;20219;-71
2022/04/30 08:47:53;;;;;;;21.00;18.93;;;;;;;10.80;100.00;98671.91;4976793;28;20239;-71
2022/04/30 08:50:19;;;;;;;19.93;17.93;;;;;;;10.69;100.00;98667.22;4977286;28;20215;-71
2022/04/30 08:52:46;;;;;;;21.50;19.37;;;;;;;10.81;100.00;98662.91;4976826;28;20207;-71
2022/04/30 08:55:12;;;;;;;18.67;16.97;;;;;;;10.81;100.00;98670.88;4975807;28;20219;-71
2022/04/30 08:57:39;;;;;;;20.77;18.63;;;;;;;10.87;100.00;98678.06;4976264;28;20232;-71
2022/04/30 09:00:07;;;;;;;20.23;17.43;;;;;;;10.74;100.00;98670.09;4976449;28;20632;-71
2022/04/30 09:02:34;;;;;;;21.63;17.23;;;;;;;10.64;100.00;98669.69;4974951;28;20204;-72
2022/04/30 09:05:00;;;;;;;21.67;19.57;;;;;;;10.65;100.00;98669.47;4976136;28;20210;-71
2022/04/30 09:07:27;;;;;;;19.20;17.40;;;;;;;10.86;100.00;98661.28;4976702;28;20227;-71
2022/04/30 09:09:56;;;;;;;22.27;18.90;;;;;;;10.64;100.00;98673.13;4976572;28;20211;-72
2022/04/30 09:12:23;;;;;;;19.73;17.73;;;;;;;10.52;100.00;98668.66;4976263;28;20220;-72
2022/04/30 09:14:49;;;;;;;19.10;17.10;;;;;;;10.60;100.00;98666.59;4976547;28;20204;-71
2022/04/30 09:17:17;;;;;;;22.80;20.17;;;;;;;10.59;100.00;98664.97;4975556;28;20608;-71
2022/04/30 09:19:51;;;;;;;20.80;18.60;;;;;;;10.66;100.00;98667.63;4975266;28;20212;-71
2022/04/30 09:22:29;;;;;;;17.60;15.83;;;;;;;10.46;100.00;98667.59;4976026;28;20218;-71
2022/04/30 09:24:55;;;;;;;17.23;15.63;;;;;;;10.52;100.00;98671.31;4976137;28;20196;-71
2022/04/30 09:27:22;;;;;;;18.67;16.77;;;;;;;10.37;100.00;98670.69;4976203;28;20224;-72
2022/04/30 09:29:48;;;;;;;18.67;16.80;;;;;;;10.41;100.00;98670.06;4976141;28;20208;-72
2022/04/30 09:32:18;;;;;;;16.77;14.97;;;;;;;10.33;100.00;98667.59;4976090;28;20219;-71
2022/04/30 09:37:43;;;;;;;17.40;15.60;;;;;;;10.35;100.00;98670.06;4975979;28;20294;-71
2022/04/30 09:40:16;;;;;;;19.00;17.00;;;;;;;10.37;100.00;98666.16;4975561;28;20195;-72
2022/04/30 09:42:43;;;;;;;16.80;15.27;;;;;;;10.40;100.00;98667.59;4975634;28;20258;-71
2022/04/30 09:45:22;;;;;;;17.80;16.10;;;;;;;10.45;100.00;98670.50;4975933;28;20548;-71
2022/04/30 09:47:49;;;;;;;15.83;14.33;;;;;;;10.40;100.00;98680.88;4975510;28;20235;-71
2022/04/30 09:55:47;;;;;;;17.07;15.27;;;;;;;10.47;100.00;98668.44;4975537;28;20203;-72
2022/04/30 09:58:20;;;;;;;14.67;13.37;;;;;;;10.62;100.00;98661.91;4975368;28;20236;-71
2022/04/30 10:00:47;;;;;;;14.67;13.23;;;;;;;10.55;100.00;98671.72;4975613;28;20283;-71
2022/04/30 10:03:15;;;;;;;13.90;12.50;;;;;;;10.52;100.00;98669.47;4975671;28;20218;-71
2022/04/30 10:05:42;;;;;;;15.93;14.43;;;;;;;10.57;100.00;98667.03;4975098;28;20210;-71
2022/04/30 10:08:09;;;;;;;14.90;13.37;;;;;;;10.60;100.00;98668.44;4973879;28;20243;-71
2022/04/30 10:10:46;;;;;;;13.13;11.90;;;;;;;10.99;100.00;98666.59;4975374;28;20208;-71
2022/04/30 10:13:43;;;;;;;14.70;13.40;;;;;;;11.01;100.00;98671.72;4975875;28;20196;-71
2022/04/30 10:16:16;;;;;;;12.53;10.60;;;;;;;11.18;100.00;98664.09;4975305;28;20239;-71
2022/04/30 10:18:45;;;;;;;10.20;9.33;;;;;;;11.17;100.00;98670.47;4973831;28;20231;-71
2022/04/30 10:21:18;;;;;;;9.60;8.80;;;;;;;11.04;100.00;98658.81;4974063;28;20204;-71
2022/04/30 10:23:46;;;;;;;9.80;8.90;;;;;;;10.94;100.00;98658.41;4975226;28;20204;-71
2022/04/30 10:26:12;;;;;;;11.80;10.80;;;;;;;10.86;100.00;98663.13;4975726;28;20204;-71
2022/04/30 10:28:39;;;;;;;12.03;10.80;;;;;;;10.81;100.00;98663.75;4974827;28;20224;-71
2022/04/30 10:31:10;;;;;;;14.07;10.80;;;;;;;10.93;100.00;98663.94;4974739;28;20251;-72
2022/04/30 10:33:51;;;;;;;9.73;8.73;;;;;;;10.91;100.00;98658.00;4974871;28;20295;-71
2022/04/30 10:36:18;;;;;;;11.77;10.60;;;;;;;11.07;100.00;98665.56;4974970;28;20219;-71
2022/04/30 10:38:55;;;;;;;12.43;11.27;;;;;;;11.42;100.00;98656.25;4973716;28;20227;-71
2022/04/30 10:41:21;;;;;;;10.37;9.47;;;;;;;11.46;100.00;98659.31;4974957;28;20219;-71
2022/04/30 10:43:48;;;;;;;8.90;8.03;;;;;;;11.60;100.00;98664.44;4974901;28;20216;-71
2022/04/30 10:46:23;;;;;;;9.97;9.10;;;;;;;11.76;100.00;98661.28;4974346;28;20211;-71
2022/04/30 10:48:50;;;;;;;9.37;8.47;;;;;;;11.58;100.00;98660.31;4974490;28;20235;-71
2022/04/30 10:51:32;;;;;;;8.07;7.27;;;;;;;11.32;100.00;98657.72;4974596;28;20218;-71
2022/04/30 10:54:00;;;;;;;6.17;5.50;;;;;;;11.35;100.00;98655.44;4973180;28;20211;-72
2022/04/30 10:56:29;;;;;;;4.70;4.40;;;;;;;11.28;98.12;98662.66;4974721;28;20248;-71
2022/04/30 10:58:56;;;;;;;2.80;2.60;;;;;;;11.24;91.83;98661.44;4974787;28;20238;-71
2022/04/30 11:01:22;;;;;;;3.40;3.10;;;;;;;11.00;100.00;98654.13;4974774;28;20215;-71
2022/04/30 11:03:50;;;;;;;4.27;3.53;;;;;;;10.72;100.00;98656.16;4974768;28;20211;-72
2022/04/30 11:06:25;;;;;;;3.47;3.27;;;;;;;10.75;100.00;98658.41;4974282;28;20674;-72
2022/04/30 11:09:06;;;;;;;3.80;3.50;;;;;;;10.88;99.86;98658.41;4974316;28;20227;-72
2022/04/30 11:11:34;;;;;;;4.67;4.27;;;;;;;10.91;100.00;98658.00;4972850;28;20199;-71
2022/04/30 11:14:00;;;;;;;4.57;4.17;;;;;;;11.07;98.80;98659.44;4973708;28;20207;-71
2022/04/30 11:16:37;;;;;;;3.90;3.60;;;;;;;11.12;95.18;98652.44;4974584;28;20256;-71
2022/04/30 11:19:06;;;;;;;4.30;4.00;;;;;;;11.12;96.88;98652.44;4974365;28;20211;-71
2022/04/30 11:21:37;;;;;;;4.93;4.53;;;;;;;11.09;100.00;98647.56;4974434;28;20215;-71
2022/04/30 11:24:05;;;;;;;5.47;4.93;;;;;;;11.04;100.00;98650.03;4974378;28;20204;-72
2022/04/30 11:26:40;;;;;;;5.77;5.30;;;;;;;11.07;100.00;98638.94;4974329;28;20234;-71
2022/04/30 11:29:14;;;;;;;5.20;4.80;;;;;;;11.13;100.00;98645.28;4972700;28;20204;-72
2022/04/30 11:31:43;;;;;;;4.97;4.43;;;;;;;11.44;99.76;98642.75;4974285;28;20208;-71
2022/04/30 11:34:13;;;;;;;5.10;4.60;;;;;;;11.57;96.05;98651.50;4974456;28;20207;-71
2022/04/30 11:36:47;;;;;;;5.20;4.80;;;;;;;11.70;93.46;98646.16;4974282;28;20323;-71
2022/04/30 11:39:15;;;;;;;5.20;4.80;;;;;;;11.75;97.76;98633.00;4974316;28;20220;-71
2022/04/30 11:41:43;;;;;;;5.70;5.30;;;;;;;11.83;99.76;98635.44;4973044;28;20204;-72
2022/04/30 11:44:14;;;;;;;5.13;4.40;;;;;;;12.25;92.92;98636.63;4974188;28;20215;-71
2022/04/30 11:46:45;;;;;;;4.90;4.50;;;;;;;12.58;91.92;98623.88;4973905;28;20203;-72
2022/04/30 11:49:16;;;;;;;5.30;4.90;;;;;;;12.51;90.80;98636.44;4974012;28;20209;-71
2022/04/30 11:51:43;;;;;;;5.30;4.90;;;;;;;12.52;89.28;98635.41;4974196;28;20208;-71
2022/04/30 11:54:12;;;;;;;5.50;5.10;;;;;;;12.38;90.96;98631.22;4974159;28;20208;-72